Time;durP1;ratioP1;P1;durP2;ratioP2;P2;SDS_P1;SDS_P2;PMS_P1;PMS_P2;Temp;Humidity;BMP_temperature;BMP_pressure;BME280_temperature;BME280_humidity;BME280_pressure;Samples;Min_cycle;Max_cycle;Signal;HPM_P1;HPM_P2
2022/05/26 08:48:48;;;;;;;6.25;2.60;;;;;;;21.20;58.22;101665.18;1667033;84;21096;-48
2022/05/26 08:51:41;;;;;;;7.37;3.00;;;;;;;21.26;58.42;101656.92;1647804;85;21574;-49
2022/05/26 08:54:17;;;;;;;11.80;2.95;;;;;;;21.33;58.38;101662.30;1643982;85;21038;-49
2022/05/26 08:56:45;;;;;;;5.62;2.22;;;;;;;21.43;58.21;101656.91;1632816;87;21561;-51
2022/05/26 08:59:13;;;;;;;6.85;3.00;;;;;;;21.52;58.00;101651.11;1631487;87;21081;-52
2022/05/26 09:01:40;;;;;;;12.63;3.20;;;;;;;21.63;57.88;101651.41;1635257;87;21063;-49
2022/05/26 09:04:07;;;;;;;9.55;2.95;;;;;;;21.71;57.78;101645.23;1631817;87;21027;-49
2022/05/26 09:12:55;;;;;;;8.73;2.35;;;;;;;21.80;57.33;101648.72;1637023;86;21542;-50
2022/05/26 09:14:39;;;;;;;7.92;2.65;;;;;;;22.06;56.44;101653.48;1625369;86;21147;-49
2022/05/26 09:17:10;;;;;;;9.00;2.17;;;;;;;22.13;55.94;101652.22;1637746;87;21074;-50
2022/05/26 09:19:49;;;;;;;7.33;2.40;;;;;;;22.18;55.57;101663.86;1645641;85;21129;-52
2022/05/26 09:22:44;;;;;;;8.18;2.70;;;;;;;22.20;55.36;101661.52;1620320;87;21121;-51
2022/05/26 09:25:34;;;;;;;8.30;2.15;;;;;;;22.22;54.88;101662.75;1617019;86;21134;-48
2022/05/26 09:28:02;;;;;;;9.50;2.55;;;;;;;22.20;54.52;101660.66;1596248;89;21665;-50
2022/05/26 09:30:33;;;;;;;5.55;2.17;;;;;;;22.15;54.42;101664.91;1598823;89;21122;-51
2022/05/26 09:33:00;;;;;;;9.48;2.75;;;;;;;22.10;54.41;101668.27;1598253;88;21086;-50
2022/05/26 09:35:31;;;;;;;6.25;2.30;;;;;;;22.08;54.35;101665.31;1587809;89;21659;-50
2022/05/26 09:38:01;;;;;;;6.75;2.02;;;;;;;22.02;54.58;101673.14;1584180;89;21027;-48
2022/05/26 09:40:32;;;;;;;8.83;2.77;;;;;;;22.00;54.51;101676.81;1584818;89;21096;-51
2022/05/26 09:43:02;;;;;;;5.80;2.95;;;;;;;21.93;54.61;101684.23;1574678;89;21078;-48
2022/05/26 09:45:48;;;;;;;5.37;2.40;;;;;;;21.85;54.91;101687.30;1593167;89;21692;-48
2022/05/26 09:48:33;;;;;;;11.80;3.25;;;;;;;21.78;55.18;101681.07;1586165;89;21065;-50
2022/05/26 09:51:27;;;;;;;8.63;2.70;;;;;;;21.70;55.55;101677.97;1578500;89;23026;-50
2022/05/26 09:53:55;;;;;;;8.98;2.25;;;;;;;21.64;55.76;101675.16;1645217;85;21050;-49
2022/05/26 09:56:33;;;;;;;6.80;2.67;;;;;;;21.59;55.95;101668.41;1627149;86;21148;-49
2022/05/26 09:59:14;;;;;;;7.17;2.77;;;;;;;21.54;56.07;101662.48;1633580;86;21090;-51
2022/05/26 10:01:43;;;;;;;5.67;2.50;;;;;;;21.51;56.10;101662.66;1569825;90;21098;-54
2022/05/26 10:04:47;;;;;;;9.13;2.72;;;;;;;21.48;56.01;101666.78;1565486;91;21152;-53
2022/05/26 10:07:36;;;;;;;8.03;2.52;;;;;;;21.45;56.13;101676.22;1541886;91;21199;-53
2022/05/26 10:10:24;;;;;;;7.10;2.30;;;;;;;21.44;56.38;101686.41;1549826;91;21093;-51
2022/05/26 10:13:20;;;;;;;6.25;2.80;;;;;;;21.43;56.73;101672.80;1526837;93;21180;-55
2022/05/26 10:16:22;;;;;;;9.75;2.40;;;;;;;21.43;57.01;101663.53;1528202;93;21109;-53
2022/05/26 10:18:57;;;;;;;7.60;2.67;;;;;;;21.41;57.17;101674.18;1492218;94;21109;-48
2022/05/26 10:21:44;;;;;;;7.25;2.85;;;;;;;21.44;57.27;101677.14;1522807;94;21108;-52
2022/05/26 10:24:37;;;;;;;9.28;3.17;;;;;;;21.46;57.57;101680.56;1503150;95;21418;-52
2022/05/26 10:27:41;;;;;;;11.75;3.85;;;;;;;21.51;57.88;101675.91;1499253;95;21092;-52
2022/05/26 10:30:44;;;;;;;17.05;5.65;;;;;;;21.57;58.48;101664.52;1493537;96;21102;-52
2022/05/26 10:33:36;;;;;;;30.48;7.40;;;;;;;21.64;59.07;101661.05;1501073;94;21160;-53
2022/05/26 10:36:14;;;;;;;25.80;7.20;;;;;;;21.68;58.97;101667.90;1501023;96;21358;-50
2022/05/26 10:39:11;;;;;;;7.80;4.62;;;;;;;21.71;58.96;101681.86;1516668;92;21179;-49
2022/05/26 10:41:52;;;;;;;5.67;3.65;;;;;;;21.74;59.61;101676.88;1538125;92;21168;-51
2022/05/26 10:44:26;;;;;;;4.65;3.70;;;;;;;21.79;60.43;101670.84;1540430;92;21125;-49
2022/05/26 10:47:16;;;;;;;4.58;3.67;;;;;;;21.87;61.09;101672.64;1510781;93;21096;-49
2022/05/26 10:49:47;;;;;;;4.65;3.90;;;;;;;21.97;61.36;101675.17;1544860;90;21108;-49
2022/05/26 10:52:26;;;;;;;5.92;4.12;;;;;;;22.07;61.46;101675.05;1560400;89;21061;-52
2022/05/26 10:55:10;;;;;;;4.35;3.95;;;;;;;22.19;61.39;101665.59;1550667;91;21073;-50
2022/05/26 10:57:51;;;;;;;4.58;3.90;;;;;;;22.30;61.20;101666.69;1561662;91;21553;-49
2022/05/26 11:00:21;;;;;;;4.28;3.83;;;;;;;22.44;61.14;101674.72;1540845;93;21109;-52
2022/05/26 11:03:04;;;;;;;4.42;4.03;;;;;;;22.57;61.04;101673.56;1543187;91;21150;-49
2022/05/26 11:05:42;;;;;;;6.17;4.03;;;;;;;22.68;60.67;101665.02;1525590;93;21167;-49
2022/05/26 11:08:28;;;;;;;3.87;3.58;;;;;;;22.79;60.66;101668.79;1539911;92;21093;-51
2022/05/26 11:10:59;;;;;;;3.98;3.60;;;;;;;22.90;60.42;101669.47;1568400;89;21299;-50
2022/05/26 11:13:34;;;;;;;4.50;3.90;;;;;;;23.01;59.79;101678.99;1541285;91;21559;-51
2022/05/26 11:19:46;;;;;;;4.25;3.85;;;;;;;23.14;58.55;101679.99;1498818;94;21691;-50
2022/05/26 11:22:13;;;;;;;3.62;3.30;;;;;;;23.15;58.35;101679.03;1484009;94;21662;-49
2022/05/26 11:24:47;;;;;;;4.53;3.85;;;;;;;23.14;58.08;101682.65;1503283;94;21187;-49
2022/05/26 11:27:28;;;;;;;4.35;3.15;;;;;;;23.14;57.94;101689.28;1494316;95;21084;-53
2022/05/26 11:30:00;;;;;;;4.35;3.72;;;;;;;23.15;57.52;101689.65;1459161;97;21193;-53
2022/05/26 11:38:19;;;;;;;3.47;3.17;;;;;;;23.15;56.62;101704.25;1427127;97;21191;-52
2022/05/26 11:41:03;;;;;;;3.83;3.00;;;;;;;23.16;56.62;101703.33;1420824;100;21639;-49
2022/05/26 11:43:40;;;;;;;3.45;3.15;;;;;;;23.16;56.31;101693.53;1418192;99;21202;-49
2022/05/26 11:46:09;;;;;;;6.72;3.12;;;;;;;23.17;56.76;101692.60;1394776;101;21185;-49
2022/05/26 11:48:42;;;;;;;3.17;2.87;;;;;;;23.22;56.85;101693.67;1398406;101;21190;-48
2022/05/26 11:51:29;;;;;;;3.10;2.75;;;;;;;23.23;56.36;101690.05;1424470;97;21730;-49
2022/05/26 11:53:56;;;;;;;3.10;2.70;;;;;;;23.25;56.14;101690.81;1445749;98;21180;-49
2022/05/26 11:56:34;;;;;;;3.40;3.10;;;;;;;23.25;56.20;101690.34;1439038;98;21128;-48
2022/05/26 11:59:28;;;;;;;3.85;3.42;;;;;;;23.28;56.08;101689.31;1441446;97;21142;-49
2022/05/26 12:02:08;;;;;;;3.80;3.40;;;;;;;23.32;56.07;101684.23;1413792;100;21120;-49
2022/05/26 12:04:41;;;;;;;3.83;3.52;;;;;;;23.38;55.85;101675.89;1451204;97;21524;-48
2022/05/26 12:07:21;;;;;;;4.33;3.40;;;;;;;23.43;55.82;101677.31;1408794;100;21192;-49
2022/05/26 12:09:58;;;;;;;4.45;3.47;;;;;;;23.49;55.67;101672.12;1396246;103;21185;-51
2022/05/26 12:12:30;;;;;;;5.28;3.60;;;;;;;23.55;55.78;101663.78;1415646;100;21193;-54
2022/05/26 12:15:06;;;;;;;3.83;3.52;;;;;;;23.60;55.67;101668.32;1451501;97;21124;-49
2022/05/26 12:17:50;;;;;;;3.83;3.42;;;;;;;23.64;55.69;101658.38;1450704;97;21059;-49
2022/05/26 12:20:24;;;;;;;5.47;3.72;;;;;;;23.69;55.65;101667.77;1438257;97;21660;-49
2022/05/26 12:22:57;;;;;;;4.75;3.55;;;;;;;23.77;55.41;101665.48;1444195;97;21122;-49
2022/05/26 12:25:30;;;;;;;5.17;3.55;;;;;;;23.81;55.16;101657.70;1461651;97;21122;-48
2022/05/26 12:28:04;;;;;;;3.60;3.30;;;;;;;23.84;55.14;101661.52;1473969;96;21125;-50
2022/05/26 12:30:52;;;;;;;4.03;3.62;;;;;;;23.88;55.14;101656.84;1490549;94;21169;-49
2022/05/26 12:33:31;;;;;;;6.10;3.98;;;;;;;23.90;55.15;101660.27;1498151;94;21651;-49
2022/05/26 12:36:31;;;;;;;5.25;4.03;;;;;;;23.89;55.28;101664.72;1491903;95;21137;-49
2022/05/26 12:39:47;;;;;;;5.90;5.03;;;;;;;23.89;55.47;101658.53;1511004;93;21061;-52
2022/05/26 12:42:35;;;;;;;7.22;5.50;;;;;;;23.89;55.30;101654.09;1509241;93;21179;-51
2022/05/26 12:45:21;;;;;;;7.53;5.20;;;;;;;23.90;55.24;101655.81;1427987;99;21206;-51
2022/05/26 12:48:18;;;;;;;6.35;5.72;;;;;;;23.89;54.95;101656.74;1411392;100;21157;-54
2022/05/26 12:50:45;;;;;;;6.12;5.62;;;;;;;23.94;55.11;101659.98;1407858;101;21689;-52
2022/05/26 12:53:29;;;;;;;6.10;5.50;;;;;;;24.03;55.26;101658.08;1403757;100;21146;-50
2022/05/26 12:56:12;;;;;;;6.65;5.95;;;;;;;24.16;55.26;101664.34;1409145;100;21124;-50
2022/05/26 12:58:46;;;;;;;5.47;5.05;;;;;;;24.30;54.95;101661.28;1400963;100;21107;-50
2022/05/26 13:01:14;;;;;;;5.05;4.55;;;;;;;24.41;54.55;101656.10;1369595;103;21195;-50
2022/05/26 13:03:46;;;;;;;3.92;3.62;;;;;;;24.49;53.65;101657.78;1373606;102;21265;-50
2022/05/26 13:06:24;;;;;;;4.97;4.03;;;;;;;24.47;52.92;101656.56;1406863;100;21134;-51
2022/05/26 13:09:30;;;;;;;5.58;3.55;;;;;;;24.50;52.70;101658.18;1403449;100;21210;-51
2022/05/26 13:12:00;;;;;;;4.60;3.35;;;;;;;24.56;52.39;101660.44;1409074;100;21178;-52
2022/05/26 13:14:59;;;;;;;3.80;3.50;;;;;;;24.63;51.72;101659.06;1417797;99;21153;-50
2022/05/26 13:17:29;;;;;;;4.17;3.05;;;;;;;24.65;51.45;101663.80;1351993;102;21198;-49
2022/05/26 13:20:04;;;;;;;4.72;3.20;;;;;;;24.66;51.14;101657.55;1325117;107;21670;-51
2022/05/26 13:22:37;;;;;;;4.70;3.72;;;;;;;24.64;50.44;101657.65;1354627;103;21694;-51
2022/05/26 13:25:11;;;;;;;3.62;2.98;;;;;;;24.67;50.54;101663.22;1363853;104;21658;-52
2022/05/26 13:27:52;;;;;;;5.75;3.35;;;;;;;24.68;49.65;101660.48;1367505;103;21103;-50
2022/05/26 13:33:12;;;;;;;3.98;2.95;;;;;;;24.63;49.75;101660.39;1326641;106;21225;-54
2022/05/26 13:35:57;;;;;;;3.45;3.15;;;;;;;24.62;50.23;101658.70;1364362;102;21215;-50
2022/05/26 13:38:36;;;;;;;5.58;3.52;;;;;;;24.65;50.13;101655.82;1371866;101;21200;-47
2022/05/26 13:41:04;;;;;;;4.78;3.50;;;;;;;24.69;50.13;101650.70;1396841;100;21266;-48
2022/05/26 13:43:35;;;;;;;3.75;3.45;;;;;;;24.77;50.40;101654.56;1397563;99;21128;-53
2022/05/26 13:46:02;;;;;;;4.83;3.70;;;;;;;24.85;50.25;101651.41;1398295;101;21152;-50
2022/05/26 13:48:36;;;;;;;4.95;3.70;;;;;;;24.91;50.07;101649.20;1399661;102;21152;-48
2022/05/26 13:51:17;;;;;;;3.50;3.20;;;;;;;24.99;50.47;101659.33;1397663;100;21096;-50
2022/05/26 13:53:47;;;;;;;;;;;;;;;25.06;49.47;101655.27;1402476;102;21171;-48
2022/05/26 13:56:26;;;;;;;3.20;2.90;;;;;;;25.08;49.08;101649.36;1381005;104;20138;-48
2022/05/26 13:58:54;;;;;;;2.95;2.75;;;;;;;25.06;48.81;101655.27;1300544;107;21264;-47
2022/05/26 14:01:25;;;;;;;4.72;3.25;;;;;;;25.05;48.94;101653.58;1280387;110;21188;-48
2022/05/26 14:03:58;;;;;;;3.60;3.30;;;;;;;25.07;49.14;101653.47;1273318;109;21149;-50
2022/05/26 14:06:31;;;;;;;6.80;3.33;;;;;;;25.09;49.37;101651.08;1275644;110;21230;-49
2022/05/26 14:09:00;;;;;;;3.65;3.35;;;;;;;25.15;49.52;101648.00;1363279;104;21622;-50
2022/05/26 14:11:43;;;;;;;4.53;3.40;;;;;;;25.23;49.71;101646.99;1364012;101;21622;-48
2022/05/26 14:14:29;;;;;;;4.28;3.47;;;;;;;25.31;49.36;101648.65;1391509;101;21130;-50
2022/05/26 14:16:58;;;;;;;4.50;3.25;;;;;;;25.40;48.92;101638.70;1403277;102;21239;-48
2022/05/26 14:19:33;;;;;;;3.75;3.45;;;;;;;25.45;48.96;101639.25;1387741;100;21180;-48
2022/05/26 14:22:00;;;;;;;3.52;3.33;;;;;;;25.52;49.39;101641.88;1373306;103;21107;-48
2022/05/26 14:24:32;;;;;;;4.25;3.85;;;;;;;25.59;49.65;101640.97;1357488;103;21200;-49
2022/05/26 14:27:18;;;;;;;3.70;3.40;;;;;;;25.68;49.18;101629.64;1364606;101;21204;-51
2022/05/26 14:29:48;;;;;;;3.92;3.47;;;;;;;25.73;48.87;101627.04;1415545;99;21232;-48
2022/05/26 14:32:29;;;;;;;3.45;3.17;;;;;;;25.80;49.05;101629.62;1338222;104;21281;-48
2022/05/26 14:34:59;;;;;;;3.75;3.37;;;;;;;25.87;48.36;101625.18;1341649;104;21675;-50
2022/05/26 14:37:28;;;;;;;4.10;3.75;;;;;;;25.91;47.84;101614.66;1362128;103;21155;-52
2022/05/26 14:39:57;;;;;;;3.47;3.17;;;;;;;25.91;47.74;101618.19;1363490;102;21214;-51
2022/05/26 14:42:31;;;;;;;5.40;4.87;;;;;;;25.92;47.88;101613.72;1355485;104;21216;-48
2022/05/26 14:44:58;;;;;;;5.33;3.62;;;;;;;25.93;48.02;101616.73;1358752;104;21680;-50
2022/05/26 14:47:25;;;;;;;3.62;3.33;;;;;;;25.95;48.20;101617.00;1349438;104;21261;-50
2022/05/26 14:49:52;;;;;;;3.10;2.90;;;;;;;25.99;47.51;101606.98;1362882;104;21292;-48
2022/05/26 14:52:22;;;;;;;5.45;3.20;;;;;;;25.98;47.21;101610.60;1379312;100;21222;-54
2022/05/26 14:57:36;;;;;;;2.70;2.50;;;;;;;25.96;47.25;101609.86;1461655;97;20147;-52
2022/05/26 15:00:08;;;;;;;2.67;2.47;;;;;;;25.92;47.82;101611.91;1486838;94;21088;-52
2022/05/26 15:02:36;;;;;;;3.05;2.85;;;;;;;25.93;48.02;101612.73;1449626;97;21089;-50
2022/05/26 15:05:05;;;;;;;4.67;2.83;;;;;;;25.94;47.71;101611.79;1475553;96;21165;-51
2022/05/26 15:07:33;;;;;;;2.92;2.72;;;;;;;25.94;47.47;101609.13;1475932;96;21153;-51
2022/05/26 15:10:00;;;;;;;3.10;2.85;;;;;;;25.95;47.12;101610.81;1466319;96;21665;-52
2022/05/26 15:12:27;;;;;;;3.87;3.00;;;;;;;25.97;47.09;101611.55;1474365;97;21143;-49
2022/05/26 15:14:54;;;;;;;3.33;3.08;;;;;;;25.98;47.01;101615.47;1467490;97;21137;-48
2022/05/26 15:17:22;;;;;;;3.27;2.98;;;;;;;25.99;46.87;101614.48;1464805;97;21156;-48
2022/05/26 15:19:52;;;;;;;3.40;3.10;;;;;;;25.98;46.78;101614.61;1456964;97;21068;-50
2022/05/26 15:22:20;;;;;;;3.08;2.77;;;;;;;25.98;47.06;101621.27;1464621;97;21167;-48
2022/05/26 15:24:48;;;;;;;3.22;2.92;;;;;;;25.98;47.14;101622.13;1487988;94;21079;-49
2022/05/26 15:27:18;;;;;;;2.95;2.75;;;;;;;26.00;47.24;101619.34;1508059;93;21102;-52
2022/05/26 15:29:45;;;;;;;2.80;2.60;;;;;;;26.03;47.38;101614.62;1607035;87;21060;-51
2022/05/26 15:32:27;;;;;;;3.45;2.50;;;;;;;26.07;47.08;101617.95;1631179;87;21116;-52
2022/05/26 15:34:54;;;;;;;3.72;2.80;;;;;;;26.09;47.21;101618.73;1664914;84;21026;-50
2022/05/26 15:37:21;;;;;;;2.50;2.30;;;;;;;26.10;46.75;101616.41;1691363;83;21025;-48
2022/05/26 15:39:51;;;;;;;2.62;2.42;;;;;;;26.11;46.48;101616.80;1684697;84;21031;-50
2022/05/26 15:42:19;;;;;;;2.83;2.62;;;;;;;26.12;46.52;101614.01;1688450;84;21034;-49
2022/05/26 15:44:48;;;;;;;2.50;2.30;;;;;;;26.15;46.15;101610.27;1683267;84;21590;-50
2022/05/26 15:47:15;;;;;;;3.22;2.60;;;;;;;26.17;45.91;101609.68;1680059;85;21072;-49
2022/05/26 15:49:46;;;;;;;2.58;2.37;;;;;;;26.17;45.99;101611.02;1666759;84;21053;-49
2022/05/26 15:52:13;;;;;;;2.60;2.40;;;;;;;26.15;45.88;101607.61;1670847;84;21623;-50
2022/05/26 15:54:42;;;;;;;7.25;4.20;;;;;;;26.16;45.75;101611.96;1667787;85;21062;-49
2022/05/26 15:57:10;;;;;;;13.75;5.08;;;;;;;26.15;45.71;101611.61;1657427;84;21464;-47
2022/05/26 15:59:37;;;;;;;12.23;5.78;;;;;;;26.13;45.60;101614.87;1652938;85;21078;-50
2022/05/26 16:02:05;;;;;;;15.32;5.47;;;;;;;26.09;45.36;101614.72;1662929;85;21055;-52
2022/05/26 16:04:33;;;;;;;8.25;4.75;;;;;;;26.03;44.90;101610.63;1678455;85;21769;-51
2022/05/26 16:07:00;;;;;;;8.93;4.22;;;;;;;25.95;44.57;101617.48;1669058;84;21045;-49
2022/05/26 16:09:27;;;;;;;8.83;4.22;;;;;;;25.83;44.31;101618.75;1662438;85;21616;-49
2022/05/26 16:11:54;;;;;;;7.37;3.90;;;;;;;25.71;44.45;101623.63;1675322;84;21039;-49
2022/05/26 16:14:24;;;;;;;10.82;4.20;;;;;;;25.60;44.60;101616.86;1660897;85;21520;-49
2022/05/26 16:16:51;;;;;;;6.22;4.10;;;;;;;25.49;44.78;101628.74;1655955;84;21040;-55
2022/05/26 16:19:17;;;;;;;9.18;4.08;;;;;;;25.37;44.88;101622.91;1688623;85;21606;-50
2022/05/26 16:21:44;;;;;;;9.40;5.45;;;;;;;25.29;45.21;101617.73;1690246;85;21080;-48
2022/05/26 16:24:11;;;;;;;10.03;4.67;;;;;;;25.18;45.41;101622.50;1690216;85;21114;-48
2022/05/26 16:26:40;;;;;;;10.93;4.85;;;;;;;25.12;45.54;101626.92;1690246;85;22249;-49
2022/05/26 16:29:09;;;;;;;11.57;5.00;;;;;;;25.04;45.55;101631.41;1687407;85;21583;-48
2022/05/26 16:31:37;;;;;;;14.25;5.55;;;;;;;24.96;45.77;101624.90;1690536;85;21064;-52
2022/05/26 16:34:04;;;;;;;16.75;6.78;;;;;;;24.90;45.94;101625.31;1690371;84;21007;-47
2022/05/26 16:36:41;;;;;;;22.30;7.45;;;;;;;24.84;46.07;101633.25;1690336;83;21055;-50
2022/05/26 16:39:12;;;;;;;24.72;7.10;;;;;;;24.81;46.01;101631.28;1690419;85;21035;-48
2022/05/26 16:41:40;;;;;;;17.50;6.60;;;;;;;24.75;45.80;101630.36;1690453;85;21059;-53
2022/05/26 16:44:07;;;;;;;20.97;7.37;;;;;;;24.71;45.92;101628.83;1690275;83;21055;-50
2022/05/26 16:46:35;;;;;;;16.02;7.05;;;;;;;24.66;46.03;101633.59;1690164;85;21023;-49
2022/05/26 16:49:03;;;;;;;21.52;8.03;;;;;;;24.61;45.91;101635.69;1690750;85;21045;-48
2022/05/26 16:51:35;;;;;;;24.47;7.20;;;;;;;24.54;45.84;101639.73;1700136;84;21117;-51
2022/05/26 16:54:03;;;;;;;14.87;5.50;;;;;;;24.45;45.83;101632.34;1584639;89;22300;-48
2022/05/26 16:56:30;;;;;;;12.45;4.65;;;;;;;24.36;45.83;101638.27;1614331;87;21112;-48
2022/05/26 16:59:00;;;;;;;9.38;4.80;;;;;;;24.25;45.97;101637.64;1614423;87;21046;-51
2022/05/26 17:01:26;;;;;;;10.63;4.30;;;;;;;24.14;46.17;101640.98;1613027;87;21075;-47
2022/05/26 17:03:53;;;;;;;13.50;4.58;;;;;;;24.05;46.38;101643.39;1609645;87;21051;-50
2022/05/26 17:06:21;;;;;;;10.45;4.87;;;;;;;23.96;46.63;101642.59;1623869;86;21054;-50
2022/05/26 17:08:48;;;;;;;13.10;5.22;;;;;;;23.87;46.83;101641.37;1617561;87;21200;-50
2022/05/26 17:11:17;;;;;;;11.85;6.05;;;;;;;23.81;47.12;101647.06;1619669;87;21533;-50
2022/05/26 17:22:02;;;;;;;10.78;4.00;;;;;;;23.59;47.91;101638.73;1642213;87;21070;-51
2022/05/26 17:24:30;;;;;;;19.05;5.30;;;;;;;23.54;47.98;101644.79;1651624;86;21083;-50
2022/05/26 17:26:58;;;;;;;12.28;4.75;;;;;;;23.50;48.06;101645.92;1654968;85;21195;-50
2022/05/26 17:29:26;;;;;;;10.53;4.42;;;;;;;23.45;48.23;101656.83;1654851;86;21518;-53
2022/05/26 17:31:52;;;;;;;9.10;4.53;;;;;;;23.40;48.39;101652.75;1648138;87;21023;-53
2022/05/26 17:34:20;;;;;;;8.38;4.22;;;;;;;23.35;48.51;101654.81;1649447;86;21046;-50
2022/05/26 17:36:48;;;;;;;7.17;4.05;;;;;;;23.30;48.71;101658.21;1648775;86;21038;-50
2022/05/26 17:41:55;;;;;;;9.80;4.45;;;;;;;23.22;49.17;101659.14;1534847;92;21528;-50
2022/05/26 17:44:23;;;;;;;10.32;5.65;;;;;;;23.18;49.28;101669.57;1539276;92;21097;-51
2022/05/26 17:46:52;;;;;;;8.65;4.95;;;;;;;23.14;49.44;101662.73;1532347;91;21139;-53
2022/05/26 17:49:21;;;;;;;9.55;4.95;;;;;;;23.09;49.54;101660.81;1529894;91;21128;-50
2022/05/26 17:51:55;;;;;;;7.72;4.22;;;;;;;23.04;49.69;101661.58;1547636;90;21129;-50
2022/05/26 17:54:25;;;;;;;7.62;4.35;;;;;;;23.00;49.88;101669.34;1502665;94;21183;-52
2022/05/26 17:56:52;;;;;;;5.72;3.80;;;;;;;22.95;50.03;101671.39;1498124;94;21175;-52
2022/05/26 17:59:21;;;;;;;7.62;3.20;;;;;;;22.92;50.23;101668.44;1494372;95;21085;-50
2022/05/26 18:01:49;;;;;;;5.03;3.87;;;;;;;22.90;50.29;101680.08;1494447;94;21111;-50
2022/05/26 18:04:20;;;;;;;6.67;4.10;;;;;;;22.88;50.46;101674.88;1503852;94;21147;-52
2022/05/26 18:06:50;;;;;;;10.18;4.65;;;;;;;22.87;50.50;101677.16;1504739;94;21631;-51
2022/05/26 18:09:17;;;;;;;14.25;5.70;;;;;;;22.84;50.47;101675.13;1497028;94;21631;-55
2022/05/26 18:11:46;;;;;;;8.13;5.00;;;;;;;22.83;50.56;101678.75;1549967;91;21128;-51
2022/05/26 18:14:13;;;;;;;6.17;4.20;;;;;;;22.81;50.63;101684.61;1548841;91;21871;-52
2022/05/26 18:16:40;;;;;;;7.78;4.55;;;;;;;22.79;50.59;101684.71;1553738;92;21116;-50
2022/05/26 18:19:10;;;;;;;4.95;4.45;;;;;;;22.76;50.56;101691.51;1572885;89;21556;-50
2022/05/26 18:21:40;;;;;;;8.53;4.25;;;;;;;22.74;50.42;101696.51;1598485;89;21100;-50
2022/05/26 18:24:07;;;;;;;8.95;4.58;;;;;;;22.69;50.34;101695.94;1592945;88;21061;-52
2022/05/26 18:26:34;;;;;;;8.73;3.75;;;;;;;22.63;50.27;101698.45;1591222;89;21483;-52
2022/05/26 18:29:01;;;;;;;9.10;4.35;;;;;;;22.57;50.29;101695.64;1596338;88;21152;-50
2022/05/26 18:31:38;;;;;;;9.65;4.65;;;;;;;22.50;50.35;101696.92;1596125;89;21594;-50
2022/05/26 18:34:07;;;;;;;9.90;4.90;;;;;;;22.42;50.59;101696.50;1598315;88;21063;-50
2022/05/26 18:36:35;;;;;;;11.55;4.60;;;;;;;22.34;50.76;101698.72;1586487;89;21075;-55
2022/05/26 18:39:05;;;;;;;12.35;5.03;;;;;;;22.28;51.04;101705.69;1592289;89;21703;-50
2022/05/26 18:41:31;;;;;;;13.08;4.90;;;;;;;22.24;51.21;101709.92;1586042;88;21084;-50
2022/05/26 18:43:58;;;;;;;21.40;6.97;;;;;;;22.21;51.31;101714.08;1607730;86;21163;-52
2022/05/26 18:46:25;;;;;;;28.12;9.28;;;;;;;22.18;51.44;101717.75;1679252;85;21136;-50
2022/05/26 18:48:56;;;;;;;29.15;9.33;;;;;;;22.18;51.45;101716.42;1691140;83;21668;-50
2022/05/26 18:51:23;;;;;;;35.43;9.08;;;;;;;22.17;51.71;101717.38;1691573;84;21053;-51
2022/05/26 18:53:50;;;;;;;30.15;8.45;;;;;;;22.13;51.75;101722.46;1681540;85;21019;-56
2022/05/26 18:56:19;;;;;;;27.73;9.15;;;;;;;22.11;51.69;101732.75;1680770;85;21105;-54
2022/05/26 18:58:46;;;;;;;23.30;8.48;;;;;;;22.10;51.55;101731.03;1680640;85;21064;-50
2022/05/26 19:01:15;;;;;;;22.87;7.45;;;;;;;22.09;51.53;101731.98;1680929;85;21038;-50
2022/05/26 19:03:44;;;;;;;27.13;7.58;;;;;;;22.14;51.45;101732.57;1680493;85;21103;-50
2022/05/26 19:06:11;;;;;;;21.85;7.37;;;;;;;22.14;51.46;101733.90;1680812;85;21043;-50
2022/05/26 19:08:40;;;;;;;26.23;7.22;;;;;;;22.14;51.45;101735.22;1680509;85;21540;-50
2022/05/26 19:11:14;;;;;;;19.52;7.25;;;;;;;22.13;51.58;101739.69;1680699;85;21107;-50
2022/05/26 19:13:45;;;;;;;16.80;7.15;;;;;;;22.14;51.82;101742.72;1649746;86;21125;-50
2022/05/26 19:16:14;;;;;;;23.47;5.90;;;;;;;22.14;52.08;101741.39;1651341;86;21069;-51
2022/05/26 19:18:41;;;;;;;16.60;6.17;;;;;;;22.15;52.37;101750.20;1657458;86;21146;-51
2022/05/26 19:21:07;;;;;;;9.80;5.10;;;;;;;22.17;52.74;101743.89;1647473;86;21113;-50
2022/05/26 19:23:36;;;;;;;17.30;6.05;;;;;;;22.18;53.19;101741.61;1654719;86;21094;-51
2022/05/26 19:26:07;;;;;;;20.50;6.65;;;;;;;22.20;53.68;101746.36;1647974;87;21031;-50
2022/05/26 19:28:47;;;;;;;47.97;12.93;;;;;;;22.21;54.13;101752.06;1614459;87;21061;-50
2022/05/26 19:31:29;;;;;;;41.40;11.20;;;;;;;22.22;52.62;101748.45;1615791;87;22268;-55
2022/05/26 19:33:58;;;;;;;28.73;9.73;;;;;;;22.18;51.59;101749.56;1543770;90;21090;-51
2022/05/26 19:36:25;;;;;;;30.02;10.58;;;;;;;22.15;51.33;101753.72;1528966;91;21070;-55
2022/05/26 19:38:52;;;;;;;36.17;9.78;;;;;;;22.09;51.45;101756.67;1525739;92;21108;-52
2022/05/26 19:41:20;;;;;;;24.65;8.65;;;;;;;22.04;51.25;101764.03;1517645;93;21742;-53
2022/05/26 19:43:51;;;;;;;24.57;7.50;;;;;;;21.97;51.44;101765.28;1520006;91;21098;-51
2022/05/26 19:46:23;;;;;;;14.25;6.22;;;;;;;21.91;52.04;101762.13;1497514;93;21100;-54
2022/05/26 19:48:50;;;;;;;14.83;6.17;;;;;;;21.86;52.76;101771.14;1501433;93;21085;-55
2022/05/26 19:51:18;;;;;;;17.73;7.55;;;;;;;21.83;53.34;101769.99;1499295;93;21152;-50
2022/05/26 19:53:46;;;;;;;16.93;5.85;;;;;;;21.82;53.77;101775.38;1529746;91;21129;-53
2022/05/26 19:56:14;;;;;;;11.73;5.15;;;;;;;21.81;54.00;101772.30;1556115;90;21759;-50
2022/05/26 19:58:41;;;;;;;12.45;5.40;;;;;;;21.82;54.17;101779.36;1559658;90;21127;-54
2022/05/26 20:01:09;;;;;;;9.03;4.53;;;;;;;21.83;54.29;101781.05;1565380;90;21648;-50
2022/05/26 20:03:36;;;;;;;7.55;3.40;;;;;;;21.84;54.38;101780.13;1520471;91;21122;-50
2022/05/26 20:06:04;;;;;;;5.03;3.02;;;;;;;21.85;54.46;101782.69;1518587;92;21192;-50
2022/05/26 20:08:31;;;;;;;4.55;3.02;;;;;;;21.88;54.56;101778.17;1532628;90;21149;-50
2022/05/26 20:10:58;;;;;;;3.05;2.65;;;;;;;21.89;54.61;101776.75;1518702;92;21159;-52
2022/05/26 20:13:25;;;;;;;3.02;2.72;;;;;;;21.93;54.69;101777.47;1517855;93;21619;-50
2022/05/26 20:15:53;;;;;;;2.80;2.60;;;;;;;21.95;54.68;101779.08;1509090;92;21120;-50
2022/05/26 20:18:21;;;;;;;2.40;2.20;;;;;;;21.97;54.65;101783.83;1515017;93;21116;-52
2022/05/26 20:20:48;;;;;;;6.22;2.17;;;;;;;22.01;54.60;101784.55;1511637;92;21122;-51
2022/05/26 20:23:16;;;;;;;2.20;2.10;;;;;;;22.03;54.55;101783.50;1537212;90;21703;-50
2022/05/26 20:25:45;;;;;;;2.35;2.20;;;;;;;22.06;54.49;101783.36;1641108;85;21138;-53
2022/05/26 20:30:57;;;;;;;2.80;2.60;;;;;;;22.11;54.35;101783.98;1654428;85;21129;-49
2022/05/26 20:33:25;;;;;;;3.70;2.47;;;;;;;22.13;54.23;101779.45;1654398;85;21028;-52
2022/05/26 20:35:52;;;;;;;2.30;2.10;;;;;;;22.15;54.10;101788.19;1669369;85;21013;-50
2022/05/26 20:38:23;;;;;;;2.50;2.30;;;;;;;22.17;54.00;101794.26;1678303;84;21049;-50
2022/05/26 20:40:50;;;;;;;2.65;2.45;;;;;;;22.19;53.87;101800.34;1666726;84;21058;-51
2022/05/26 20:43:18;;;;;;;4.22;2.92;;;;;;;22.20;53.67;101795.41;1696494;83;21060;-50
2022/05/26 20:45:46;;;;;;;2.67;2.47;;;;;;;22.21;53.53;101794.94;1676531;85;21065;-50
2022/05/26 20:48:16;;;;;;;2.90;2.70;;;;;;;22.21;53.31;101798.45;1689859;84;21107;-51
2022/05/26 20:50:43;;;;;;;4.00;3.20;;;;;;;22.23;53.17;101807.19;1604426;88;21133;-50
2022/05/26 20:53:11;;;;;;;3.15;2.77;;;;;;;22.23;53.12;101806.32;1586247;87;21094;-51
2022/05/26 20:55:38;;;;;;;3.02;2.80;;;;;;;22.22;53.16;101813.41;1582783;88;21043;-50
2022/05/26 20:58:06;;;;;;;3.25;3.02;;;;;;;22.22;53.16;101816.52;1616947;87;21031;-50
2022/05/26 21:00:33;;;;;;;3.27;3.00;;;;;;;22.21;53.10;101809.52;1602089;87;21123;-50
2022/05/26 21:03:00;;;;;;;3.20;2.95;;;;;;;22.19;53.15;101816.24;1597679;88;21081;-50
2022/05/26 21:05:27;;;;;;;3.50;3.20;;;;;;;22.17;53.20;101823.42;1608924;88;21548;-50
2022/05/26 21:07:55;;;;;;;3.35;3.05;;;;;;;22.15;53.20;101817.34;1610800;88;21534;-50
2022/05/26 21:10:22;;;;;;;2.85;2.65;;;;;;;22.13;53.10;101819.22;1612473;88;21022;-52